Time;durP1;ratioP1;P1;durP2;ratioP2;P2;SDS_P1;SDS_P2;PMS_P1;PMS_P2;Temp;Humidity;BMP_temperature;BMP_pressure;BME280_temperature;BME280_humidity;BME280_pressure;Samples;Min_cycle;Max_cycle;Signal;HPM_P1;HPM_P2
2022/01/12 00:01:55;;;;;;;3.30;2.45;;;5.50;99.90;;;;;;5114870;28;20108;-67
2022/01/12 00:04:21;;;;;;;6.72;2.50;;;5.40;99.90;;;;;;5115083;28;20497;-67
2022/01/12 00:06:46;;;;;;;4.10;2.80;;;5.20;99.90;;;;;;5114988;28;20368;-68
2022/01/12 00:09:13;;;;;;;4.03;2.80;;;5.10;99.90;;;;;;5112482;28;20479;-66
2022/01/12 00:11:39;;;;;;;3.78;2.30;;;5.00;99.90;;;;;;5112920;28;20028;-67
2022/01/12 00:14:05;;;;;;;7.05;2.88;;;5.10;99.90;;;;;;5112650;28;20119;-66
2022/01/12 00:16:32;;;;;;;3.17;2.35;;;5.20;99.90;;;;;;5116863;28;20027;-64
2022/01/12 00:18:58;;;;;;;3.95;2.55;;;5.20;99.90;;;;;;5117709;27;20084;-65
2022/01/12 00:21:23;;;;;;;2.35;1.80;;;5.30;99.90;;;;;;5116013;28;20064;-65
2022/01/12 00:23:49;;;;;;;3.45;2.53;;;5.30;99.90;;;;;;5117094;28;20048;-65
2022/01/12 00:34:24;;;;;;;5.07;3.05;;;5.30;99.90;;;;;;5116177;28;20479;-64
2022/01/12 00:36:50;;;;;;;3.47;2.17;;;5.20;99.90;;;;;;5116319;28;20027;-66
2022/01/12 00:39:15;;;;;;;3.85;2.53;;;5.30;99.90;;;;;;5115552;28;20027;-66
2022/01/12 00:41:41;;;;;;;4.90;2.25;;;5.30;99.90;;;;;;5116747;28;20042;-65
2022/01/12 00:44:10;;;;;;;2.90;2.00;;;5.20;99.90;;;;;;5115793;28;20020;-67
2022/01/12 00:46:38;;;;;;;2.67;1.92;;;5.20;99.90;;;;;;5117234;28;20020;-68
2022/01/12 00:49:05;;;;;;;5.03;1.88;;;5.10;99.90;;;;;;5116176;28;20046;-70
2022/01/12 00:51:32;;;;;;;2.35;2.08;;;5.10;99.90;;;;;;5116732;28;20099;-65
2022/01/12 00:54:00;;;;;;;3.17;2.17;;;4.90;99.90;;;;;;5115856;28;20461;-64
2022/01/12 00:56:26;;;;;;;2.33;1.90;;;5.00;99.90;;;;;;5115805;28;20024;-64
2022/01/12 00:58:52;;;;;;;3.92;2.05;;;5.00;99.90;;;;;;5116207;28;20433;-64
2022/01/12 01:01:19;;;;;;;4.80;2.03;;;4.90;99.90;;;;;;5115505;28;20114;-65
2022/01/12 01:03:48;;;;;;;4.38;2.45;;;5.00;99.90;;;;;;5115845;28;20027;-64
2022/01/12 01:06:14;;;;;;;2.35;1.95;;;5.10;99.90;;;;;;5115262;28;20119;-65
2022/01/12 01:08:40;;;;;;;6.95;2.35;;;5.20;99.90;;;;;;5115750;28;20527;-64
2022/01/12 01:11:07;;;;;;;6.80;2.90;;;5.40;99.90;;;;;;5115786;28;20090;-65
2022/01/12 01:13:36;;;;;;;3.28;2.00;;;5.20;99.90;;;;;;5114586;28;20360;-64
2022/01/12 01:26:46;;;;;;;3.72;1.92;;;4.70;99.90;;;;;;5115956;28;20030;-64
2022/01/12 01:29:12;;;;;;;2.88;1.92;;;4.80;99.90;;;;;;5114664;27;20388;-65
2022/01/12 01:31:40;;;;;;;2.92;1.73;;;4.80;99.90;;;;;;5115550;28;20448;-64
2022/01/12 01:34:09;;;;;;;4.00;1.75;;;4.80;99.90;;;;;;5115345;28;20101;-65
2022/01/12 01:36:41;;;;;;;2.35;1.55;;;4.70;99.90;;;;;;5114079;28;20032;-64
2022/01/12 01:39:08;;;;;;;3.75;1.67;;;4.70;99.90;;;;;;5113724;28;20080;-71
2022/01/12 01:41:35;;;;;;;5.00;2.10;;;4.60;99.90;;;;;;5097118;28;20027;-64
2022/01/12 01:54:56;;;;;;;3.85;1.83;;;4.50;99.90;;;;;;5115126;28;20035;-67
2022/01/12 01:57:25;;;;;;;2.88;1.83;;;4.50;99.90;;;;;;5114565;28;20027;-66
2022/01/12 01:59:51;;;;;;;3.92;1.92;;;4.50;99.90;;;;;;5113588;28;20035;-65
2022/01/12 02:02:16;;;;;;;3.17;1.40;;;4.50;99.90;;;;;;5114819;28;20024;-65
2022/01/12 02:04:42;;;;;;;3.22;2.15;;;4.50;99.90;;;;;;5115527;28;20472;-68
2022/01/12 02:07:08;;;;;;;2.70;2.03;;;4.50;99.90;;;;;;5116078;28;20102;-73
2022/01/12 02:09:37;;;;;;;6.32;2.20;;;4.50;99.90;;;;;;5115547;28;20032;-68
2022/01/12 02:12:03;;;;;;;5.25;2.25;;;4.40;99.90;;;;;;5113822;28;20468;-65
2022/01/12 02:14:29;;;;;;;4.03;2.28;;;4.40;99.90;;;;;;5113938;28;20071;-66
2022/01/12 02:17:08;;;;;;;3.30;2.08;;;4.30;99.90;;;;;;5113409;28;20035;-65
2022/01/12 02:20:10;;;;;;;3.28;2.50;;;4.30;99.90;;;;;;5114206;28;20429;-64
2022/01/12 02:36:30;;;;;;;5.72;2.67;;;4.20;99.90;;;;;;5113837;28;20038;-65
2022/01/12 02:41:41;;;;;;;3.67;2.42;;;4.20;99.90;;;;;;5113886;28;20045;-65
2022/01/12 02:54:48;;;;;;;4.15;2.80;;;4.00;99.90;;;;;;5114072;28;20031;-65
2022/01/12 02:57:14;;;;;;;9.20;3.60;;;4.00;99.90;;;;;;5112052;28;20036;-65
2022/01/12 02:59:56;;;;;;;4.95;3.05;;;3.90;99.90;;;;;;5112546;28;20281;-65
2022/01/12 03:02:35;;;;;;;4.38;3.25;;;3.90;99.90;;;;;;5112118;28;20031;-65
2022/01/12 03:07:46;;;;;;;5.85;3.08;;;3.90;99.90;;;;;;5114019;28;20586;-68
2022/01/12 03:10:15;;;;;;;5.25;3.78;;;3.90;99.90;;;;;;5114713;28;20075;-68
2022/01/12 03:12:43;;;;;;;4.35;3.20;;;3.90;99.90;;;;;;5112748;28;20059;-65
2022/01/12 03:15:09;;;;;;;5.72;2.65;;;3.90;99.90;;;;;;5112385;28;20027;-65
2022/01/12 03:17:36;;;;;;;3.15;2.80;;;3.90;99.90;;;;;;5113160;28;20023;-64
2022/01/12 03:20:05;;;;;;;3.72;2.30;;;3.90;99.90;;;;;;5113531;28;20023;-65
2022/01/12 03:22:30;;;;;;;3.97;3.00;;;3.90;99.90;;;;;;5112549;28;20118;-64
2022/01/12 03:24:56;;;;;;;3.65;2.75;;;3.80;99.90;;;;;;5111951;28;20122;-65
2022/01/12 03:27:24;;;;;;;4.13;3.00;;;3.90;99.90;;;;;;5114470;28;20020;-69
2022/01/12 03:29:54;;;;;;;2.65;2.45;;;3.90;99.90;;;;;;5115205;28;20084;-69
2022/01/12 03:32:26;;;;;;;6.38;3.50;;;3.90;99.90;;;;;;5114962;28;20123;-67
2022/01/12 03:34:57;;;;;;;3.63;2.45;;;3.70;99.90;;;;;;5113934;28;20027;-65
2022/01/12 03:39:54;;;;;;;8.45;3.10;;;3.70;99.90;;;;;;5113050;28;20032;-65
2022/01/12 03:42:20;;;;;;;5.63;2.90;;;3.60;99.90;;;;;;5111261;28;20152;-65
2022/01/12 03:44:45;;;;;;;4.60;2.97;;;3.60;99.90;;;;;;5112865;28;20472;-65
2022/01/12 03:47:11;;;;;;;4.20;3.25;;;3.60;99.90;;;;;;5113062;28;20380;-65
2022/01/12 03:49:37;;;;;;;3.13;2.80;;;3.60;99.90;;;;;;5111885;28;20036;-65
2022/01/12 03:52:03;;;;;;;5.45;2.72;;;3.60;99.90;;;;;;5113070;28;20024;-64
2022/01/12 03:54:29;;;;;;;3.17;2.63;;;3.60;99.90;;;;;;5111368;28;20214;-67
2022/01/12 03:56:55;;;;;;;4.85;3.00;;;3.60;99.90;;;;;;5111564;28;20059;-65
2022/01/12 03:59:21;;;;;;;5.07;3.30;;;3.60;99.90;;;;;;5112217;28;20391;-65
2022/01/12 04:01:46;;;;;;;4.20;3.17;;;3.60;99.90;;;;;;5113096;28;20027;-64
2022/01/12 04:04:19;;;;;;;3.95;3.10;;;3.50;99.90;;;;;;5111564;28;20028;-65
2022/01/12 04:09:29;;;;;;;6.03;3.70;;;3.70;99.90;;;;;;5111900;28;20124;-66
2022/01/12 04:11:55;;;;;;;5.38;4.15;;;3.70;99.90;;;;;;5112753;28;20027;-64
2022/01/12 04:14:21;;;;;;;5.90;3.72;;;3.70;99.90;;;;;;5111991;28;20024;-65
2022/01/12 04:16:46;;;;;;;6.00;3.80;;;3.70;99.90;;;;;;5111358;28;20024;-65
2022/01/12 04:19:12;;;;;;;4.28;3.10;;;3.60;99.90;;;;;;5112439;28;20027;-65
2022/01/12 04:21:43;;;;;;;6.38;3.67;;;3.70;99.90;;;;;;5111666;28;20024;-65
2022/01/12 04:24:09;;;;;;;8.48;3.42;;;3.70;99.90;;;;;;5112727;28;20020;-66
2022/01/12 04:26:35;;;;;;;4.78;3.20;;;3.70;99.90;;;;;;5110832;28;20104;-64
2022/01/12 04:29:01;;;;;;;4.70;3.50;;;3.70;99.90;;;;;;5111402;28;20473;-64
2022/01/12 04:31:27;;;;;;;6.18;3.80;;;3.80;99.90;;;;;;5111902;28;20028;-64
2022/01/12 04:33:52;;;;;;;7.50;3.72;;;3.70;99.90;;;;;;5112483;28;20039;-68
2022/01/12 04:36:18;;;;;;;5.55;3.40;;;3.70;99.90;;;;;;5112111;28;20032;-64
2022/01/12 04:38:45;;;;;;;3.83;3.13;;;3.80;99.90;;;;;;5113004;28;20031;-68
2022/01/12 04:41:12;;;;;;;5.18;3.47;;;3.70;99.90;;;;;;5118147;27;20031;-64
2022/01/12 04:43:39;;;;;;;5.35;3.58;;;3.80;99.90;;;;;;5122149;27;20487;-64
2022/01/12 04:48:49;;;;;;;4.65;3.28;;;3.70;99.90;;;;;;5133116;27;20110;-65
2022/01/12 04:51:15;;;;;;;5.10;3.45;;;3.60;99.90;;;;;;5131862;28;20027;-65
2022/01/12 04:53:41;;;;;;;6.53;3.90;;;3.60;99.90;;;;;;5132319;27;20437;-67
2022/01/12 04:56:06;;;;;;;6.13;3.50;;;3.60;99.90;;;;;;5133288;27;20042;-64
2022/01/12 04:58:32;;;;;;;5.43;3.15;;;3.60;99.90;;;;;;5132561;27;20027;-65
2022/01/12 05:01:05;;;;;;;5.75;3.88;;;3.60;99.90;;;;;;5134278;27;20035;-64
2022/01/12 05:09:15;;;;;;;4.50;3.45;;;3.60;99.90;;;;;;5136775;27;20050;-68
2022/01/12 05:14:41;;;;;;;6.22;4.03;;;3.60;99.90;;;;;;5097785;27;20035;-68
2022/01/12 05:17:06;;;;;;;7.20;3.60;;;3.60;99.90;;;;;;5136505;27;20020;-66
2022/01/12 05:19:32;;;;;;;12.68;4.68;;;3.60;99.90;;;;;;5135737;27;20414;-65
2022/01/12 05:21:58;;;;;;;11.30;5.18;;;3.60;99.90;;;;;;5136133;27;20472;-64
2022/01/12 05:24:23;;;;;;;12.90;5.63;;;3.60;99.90;;;;;;5134816;27;20380;-66
2022/01/12 05:26:49;;;;;;;7.72;3.97;;;3.70;99.90;;;;;;5136460;27;20049;-65
2022/01/12 05:29:15;;;;;;;9.00;4.60;;;3.70;99.90;;;;;;5135535;27;20043;-66
2022/01/12 05:31:40;;;;;;;8.95;3.75;;;3.80;99.90;;;;;;5134214;27;20038;-66
2022/01/12 05:34:06;;;;;;;6.68;4.38;;;3.70;99.90;;;;;;5136056;27;20027;-64
2022/01/12 05:36:32;;;;;;;8.10;4.68;;;3.70;99.90;;;;;;5135327;27;20055;-66
2022/01/12 05:38:59;;;;;;;15.68;4.50;;;3.70;99.90;;;;;;5135955;27;20105;-64
2022/01/12 05:41:25;;;;;;;7.20;4.53;;;3.80;99.90;;;;;;5133692;27;20059;-65
2022/01/12 05:43:51;;;;;;;6.90;4.18;;;3.70;99.90;;;;;;5135347;27;20023;-64
2022/01/12 05:46:22;;;;;;;6.72;3.85;;;3.80;99.90;;;;;;5135774;27;20471;-65
2022/01/12 05:51:32;;;;;;;9.75;5.00;;;3.80;99.90;;;;;;5134153;27;20396;-69
2022/01/12 05:53:58;;;;;;;9.35;5.10;;;3.80;99.90;;;;;;5135539;27;20023;-64
2022/01/12 05:56:23;;;;;;;9.18;4.68;;;3.80;99.90;;;;;;5134425;27;20106;-69
2022/01/12 05:58:50;;;;;;;11.98;4.80;;;3.80;99.90;;;;;;5135511;27;20129;-65
2022/01/12 06:01:16;;;;;;;7.53;4.40;;;3.80;99.90;;;;;;5133999;27;20031;-65
2022/01/12 06:03:42;;;;;;;7.43;4.85;;;3.80;99.90;;;;;;5133051;27;20201;-66
2022/01/12 06:06:08;;;;;;;6.65;4.60;;;3.70;99.90;;;;;;5133827;27;20029;-66
2022/01/12 06:08:33;;;;;;;10.48;4.90;;;3.70;99.90;;;;;;5134509;27;20026;-64
2022/01/12 06:10:59;;;;;;;12.43;5.38;;;3.70;99.90;;;;;;5133994;27;20117;-66
2022/01/12 06:13:25;;;;;;;7.65;4.25;;;3.70;99.90;;;;;;5132663;27;20019;-67
2022/01/12 06:15:50;;;;;;;9.60;4.38;;;3.80;99.90;;;;;;5136199;27;20033;-65
2022/01/12 06:18:16;;;;;;;11.20;4.63;;;3.70;99.90;;;;;;5135373;27;20023;-65
2022/01/12 06:20:41;;;;;;;12.73;4.30;;;3.70;99.90;;;;;;5134171;27;20020;-66
2022/01/12 06:23:07;;;;;;;6.40;4.25;;;3.80;99.90;;;;;;5133244;27;20488;-65
2022/01/12 06:25:33;;;;;;;6.50;4.22;;;3.80;99.90;;;;;;5134376;27;20120;-64
2022/01/12 06:28:22;;;;;;;6.90;4.10;;;3.80;99.90;;;;;;5134835;27;20023;-66
2022/01/12 06:33:28;;;;;;;9.80;4.72;;;3.70;99.90;;;;;;5134290;27;20123;-64
2022/01/12 06:35:53;;;;;;;10.60;5.30;;;3.70;99.90;;;;;;5134530;27;20055;-64
2022/01/12 06:38:21;;;;;;;6.35;4.63;;;3.70;99.90;;;;;;5134661;27;20034;-65
2022/01/12 06:40:47;;;;;;;8.55;5.25;;;3.80;99.90;;;;;;5133764;27;20027;-64
2022/01/12 06:43:12;;;;;;;9.30;5.03;;;3.80;99.90;;;;;;5134561;27;20075;-66
2022/01/12 06:45:39;;;;;;;6.40;4.65;;;3.70;99.90;;;;;;5133923;27;20027;-65
2022/01/12 06:48:05;;;;;;;7.85;4.72;;;3.60;99.90;;;;;;5133017;27;20372;-66
2022/01/12 06:50:31;;;;;;;9.85;6.05;;;3.60;99.90;;;;;;5134338;27;20127;-66
2022/01/12 06:52:57;;;;;;;6.97;4.28;;;3.60;99.90;;;;;;5133098;27;20548;-65
2022/01/12 06:55:22;;;;;;;7.68;4.82;;;3.60;99.90;;;;;;5132558;27;20033;-66
2022/01/12 06:57:48;;;;;;;11.15;5.32;;;3.40;99.90;;;;;;5133600;27;20030;-65
2022/01/12 07:00:15;;;;;;;10.38;4.88;;;3.50;99.90;;;;;;5134437;27;20414;-67
2022/01/12 07:02:40;;;;;;;7.40;4.82;;;3.40;99.90;;;;;;5134038;27;20483;-65
2022/01/12 07:05:06;;;;;;;7.57;5.25;;;3.40;99.90;;;;;;5134173;27;20027;-66
2022/01/12 07:07:32;;;;;;;8.98;6.07;;;3.40;99.90;;;;;;5133696;27;20038;-70
2022/01/12 07:09:58;;;;;;;9.27;4.95;;;3.50;99.90;;;;;;5132766;27;20031;-66
2022/01/12 07:12:23;;;;;;;9.25;5.53;;;3.50;99.90;;;;;;5132692;27;20050;-65
2022/01/12 07:14:49;;;;;;;10.05;5.82;;;3.50;99.90;;;;;;5133528;27;20467;-67
2022/01/12 07:17:15;;;;;;;9.30;5.07;;;3.60;99.90;;;;;;5132264;27;20156;-64
2022/01/12 07:19:40;;;;;;;9.57;5.32;;;3.70;99.90;;;;;;5132010;27;20031;-65
2022/01/12 07:22:06;;;;;;;8.00;5.80;;;3.60;99.90;;;;;;5133192;27;20077;-65
2022/01/12 07:24:31;;;;;;;11.98;5.05;;;3.70;99.90;;;;;;5132819;27;20019;-65
2022/01/12 07:26:57;;;;;;;11.95;5.70;;;3.70;99.90;;;;;;5132546;27;20110;-64
2022/01/12 07:29:23;;;;;;;8.13;4.65;;;3.80;99.90;;;;;;5133677;27;20110;-65
2022/01/12 07:31:48;;;;;;;10.43;6.18;;;3.80;99.90;;;;;;5132824;27;20042;-67
2022/01/12 07:34:15;;;;;;;10.13;5.90;;;3.90;99.90;;;;;;5132651;27;20058;-67
2022/01/12 07:36:42;;;;;;;7.05;4.55;;;3.80;99.90;;;;;;5134302;27;20106;-66
2022/01/12 07:39:08;;;;;;;10.00;4.90;;;3.80;99.90;;;;;;5133043;27;20456;-68
2022/01/12 07:41:35;;;;;;;8.13;5.18;;;3.70;99.90;;;;;;5132727;27;20023;-66
2022/01/12 07:44:00;;;;;;;10.80;4.40;;;3.80;99.90;;;;;;5134329;27;20081;-69
2022/01/12 07:46:26;;;;;;;9.60;5.32;;;3.80;99.90;;;;;;5134136;27;20504;-66
2022/01/12 07:48:52;;;;;;;7.90;5.47;;;3.80;99.90;;;;;;5133739;27;20106;-67
2022/01/12 07:51:18;;;;;;;8.55;5.55;;;3.80;99.90;;;;;;5133701;27;20103;-65
2022/01/12 07:53:45;;;;;;;10.70;5.65;;;3.70;99.90;;;;;;5131881;27;20022;-66
2022/01/12 07:56:10;;;;;;;9.98;5.18;;;3.70;99.90;;;;;;5125570;27;20126;-67
2022/01/12 07:58:36;;;;;;;8.55;5.38;;;3.90;99.90;;;;;;5113349;28;20140;-68
2022/01/12 08:01:03;;;;;;;11.15;5.10;;;4.40;99.90;;;;;;5114024;28;20028;-65
2022/01/12 08:03:28;;;;;;;13.77;5.03;;;5.50;99.90;;;;;;5111881;28;20528;-66
2022/01/12 08:05:54;;;;;;;9.43;5.03;;;6.70;99.90;;;;;;5128440;28;20111;-65
2022/01/12 08:08:20;;;;;;;8.90;6.05;;;7.30;99.90;;;;;;5111324;28;20032;-67
2022/01/12 08:10:46;;;;;;;9.98;5.30;;;7.30;99.90;;;;;;5112312;28;20393;-65
2022/01/12 08:13:12;;;;;;;7.47;5.32;;;6.90;99.90;;;;;;5128610;28;20030;-66
2022/01/12 08:15:38;;;;;;;10.80;4.90;;;6.30;99.90;;;;;;5113375;28;20125;-68
2022/01/12 08:18:03;;;;;;;9.98;5.97;;;5.80;99.90;;;;;;5119239;28;20475;-67
2022/01/12 08:20:30;;;;;;;7.75;5.60;;;5.40;99.90;;;;;;5123674;28;20107;-65
2022/01/12 08:22:56;;;;;;;8.32;5.80;;;5.80;99.90;;;;;;5123113;28;20101;-63
2022/01/12 08:25:23;;;;;;;8.85;5.57;;;5.60;99.90;;;;;;5123835;28;20024;-64
2022/01/12 08:27:50;;;;;;;8.25;6.22;;;5.60;99.90;;;;;;5120833;28;20031;-63
2022/01/12 08:30:18;;;;;;;8.32;5.55;;;5.80;99.90;;;;;;5111110;28;20051;-66
2022/01/12 08:32:49;;;;;;;7.85;6.00;;;6.70;99.90;;;;;;5113286;28;20098;-65
2022/01/12 08:35:16;;;;;;;9.23;5.63;;;7.70;99.90;;;;;;5116386;27;20084;-63
2022/01/12 08:37:42;;;;;;;6.68;5.05;;;8.00;99.90;;;;;;5128536;27;20034;-66
2022/01/12 08:40:10;;;;;;;7.30;5.38;;;8.70;99.90;;;;;;5121544;27;20474;-68
2022/01/12 08:42:35;;;;;;;13.65;6.07;;;9.20;99.90;;;;;;5124815;27;20019;-65
2022/01/12 08:45:03;;;;;;;9.65;5.72;;;9.90;99.20;;;;;;5137053;27;20035;-65
2022/01/12 08:47:29;;;;;;;9.38;5.78;;;10.60;97.30;;;;;;5136627;27;20032;-64
2022/01/12 08:49:55;;;;;;;9.02;5.68;;;10.20;96.60;;;;;;5125370;27;20089;-64
2022/01/12 08:52:23;;;;;;;9.50;6.28;;;9.90;97.50;;;;;;5136960;27;20023;-65
2022/01/12 08:54:49;;;;;;;10.07;6.25;;;9.90;96.70;;;;;;5131189;27;20053;-64
2022/01/12 08:57:14;;;;;;;8.10;5.32;;;9.40;97.70;;;;;;5120565;27;20032;-65
2022/01/12 08:59:40;;;;;;;9.50;6.15;;;9.50;98.00;;;;;;5122142;27;20148;-65
2022/01/12 09:02:07;;;;;;;8.00;5.90;;;9.80;97.60;;;;;;5123096;27;20444;-65
2022/01/12 09:04:33;;;;;;;11.27;5.63;;;9.90;96.90;;;;;;5133510;27;20361;-70
2022/01/12 09:06:59;;;;;;;10.68;6.05;;;11.10;96.00;;;;;;5114811;27;20031;-67
2022/01/12 09:09:26;;;;;;;10.05;5.55;;;11.00;95.10;;;;;;5122476;27;20030;-65
2022/01/12 09:11:52;;;;;;;10.35;5.75;;;10.50;96.10;;;;;;5123200;27;20036;-65
2022/01/12 09:14:18;;;;;;;8.73;5.75;;;10.70;95.50;;;;;;5115537;27;20490;-64
2022/01/12 09:16:56;;;;;;;11.00;6.18;;;10.50;95.80;;;;;;5117219;27;20082;-65
2022/01/12 09:19:23;;;;;;;12.15;5.68;;;11.00;94.90;;;;;;5114504;27;20441;-66
2022/01/12 09:21:49;;;;;;;8.30;5.47;;;11.80;93.10;;;;;;5119678;27;20404;-66
2022/01/12 09:24:15;;;;;;;9.00;6.20;;;11.80;95.50;;;;;;5124929;27;20110;-66
2022/01/12 09:26:41;;;;;;;8.40;5.45;;;11.50;96.40;;;;;;5121490;27;20438;-64
2022/01/12 09:29:07;;;;;;;9.85;5.53;;;11.40;92.50;;;;;;5120889;27;20039;-64
2022/01/12 09:31:33;;;;;;;9.80;5.63;;;11.50;91.80;;;;;;5115386;27;20046;-67
2022/01/12 09:33:59;;;;;;;13.45;6.43;;;10.80;92.20;;;;;;5117333;27;20108;-66
2022/01/12 09:36:25;;;;;;;11.38;5.80;;;10.00;94.20;;;;;;5119743;27;20499;-66
2022/01/12 09:38:51;;;;;;;7.35;5.45;;;10.70;94.40;;;;;;5118479;27;20035;-66
2022/01/12 09:41:16;;;;;;;10.98;6.13;;;11.90;92.80;;;;;;5114876;27;20028;-66
2022/01/12 09:43:43;;;;;;;8.80;5.40;;;12.10;90.80;;;;;;5125630;27;20030;-67
2022/01/12 09:46:10;;;;;;;11.52;4.88;;;;;;;;;;5116533;27;20019;-65
2022/01/12 09:48:36;;;;;;;7.63;5.20;;;13.00;86.00;;;;;;5131380;27;20437;-65
2022/01/12 09:51:06;;;;;;;12.18;5.15;;;12.60;84.30;;;;;;5134413;27;20058;-65
2022/01/12 09:53:34;;;;;;;6.85;5.25;;;12.40;84.20;;;;;;5127073;27;20493;-71
2022/01/12 09:56:03;;;;;;;7.95;5.30;;;11.80;85.90;;;;;;5130981;27;20027;-65
2022/01/12 09:58:36;;;;;;;5.45;4.40;;;11.50;86.30;;;;;;5119555;27;20353;-65
2022/01/12 10:01:03;;;;;;;7.90;5.03;;;11.50;85.50;;;;;;5119610;27;20102;-65
2022/01/12 10:03:28;;;;;;;6.72;4.82;;;11.50;86.60;;;;;;5126045;27;20038;-65
2022/01/12 10:05:54;;;;;;;7.88;5.03;;;11.90;86.40;;;;;;5125836;27;20024;-65
2022/01/12 10:08:20;;;;;;;12.07;5.15;;;12.30;85.50;;;;;;5118223;27;20030;-65
2022/01/12 10:11:05;;;;;;;7.95;5.57;;;13.30;82.80;;;;;;5136914;27;20039;-64
2022/01/12 10:13:32;;;;;;;12.50;5.07;;;13.80;78.30;;;;;;5118163;27;20039;-65
2022/01/12 10:16:08;;;;;;;9.05;5.05;;;13.60;78.40;;;;;;5117425;27;20055;-65
2022/01/12 10:18:47;;;;;;;6.20;5.03;;;14.10;77.60;;;;;;5109493;27;20440;-62
2022/01/12 10:21:28;;;;;;;10.57;5.05;;;13.70;75.70;;;;;;5123810;27;20015;-60
2022/01/12 10:24:05;;;;;;;6.88;5.13;;;13.90;80.00;;;;;;5131940;27;20054;-62
2022/01/12 10:26:37;;;;;;;10.80;6.03;;;14.20;76.40;;;;;;5114833;27;20031;-62
2022/01/12 10:29:24;;;;;;;8.93;4.88;;;14.30;74.00;;;;;;5118700;27;20104;-62
2022/01/12 10:31:57;;;;;;;7.43;4.50;;;15.00;75.00;;;;;;5118401;27;20030;-61
2022/01/12 10:34:24;;;;;;;9.73;5.82;;;;;;;;;;5110461;27;20100;-61
2022/01/12 10:36:52;;;;;;;12.10;5.15;;;15.70;70.20;;;;;;5114904;27;20088;-62
2022/01/12 10:39:19;;;;;;;12.40;6.45;;;15.10;69.90;;;;;;5115576;27;20079;-62
2022/01/12 10:42:16;;;;;;;8.20;5.20;;;15.70;70.00;;;;;;5117030;27;20031;-61
2022/01/12 10:44:45;;;;;;;8.35;5.72;;;16.20;69.50;;;;;;5125055;27;20089;-61
2022/01/12 10:47:22;;;;;;;8.38;5.28;;;16.40;67.10;;;;;;5124675;27;20559;-63
2022/01/12 10:49:54;;;;;;;7.03;5.55;;;15.60;66.90;;;;;;5111417;27;20047;-65
2022/01/12 10:52:21;;;;;;;11.15;5.60;;;14.30;68.00;;;;;;5127715;27;20035;-65
2022/01/12 10:54:48;;;;;;;7.70;5.53;;;13.50;70.10;;;;;;5117629;27;20059;-63
2022/01/12 10:57:18;;;;;;;8.48;6.28;;;12.20;73.40;;;;;;5120774;27;20177;-63
2022/01/12 11:00:08;;;;;;;10.98;6.57;;;11.80;76.20;;;;;;5111128;27;20054;-63
2022/01/12 11:02:35;;;;;;;11.10;6.13;;;12.10;77.00;;;;;;5107729;27;20036;-69
2022/01/12 11:05:02;;;;;;;9.30;6.35;;;12.80;74.00;;;;;;5131756;27;20035;-72
2022/01/12 11:07:30;;;;;;;9.07;6.35;;;12.90;75.40;;;;;;5122467;27;20378;-63
2022/01/12 11:10:01;;;;;;;8.50;6.32;;;13.40;73.80;;;;;;5115172;27;20032;-63
2022/01/12 11:12:27;;;;;;;11.23;6.38;;;13.10;73.90;;;;;;5124053;27;20480;-63
2022/01/12 11:14:53;;;;;;;12.80;6.70;;;12.00;74.50;;;;;;5125238;27;20405;-65
2022/01/12 11:17:19;;;;;;;10.18;7.25;;;11.50;77.50;;;;;;5113359;28;20075;-66
2022/01/12 11:20:11;;;;;;;16.42;6.93;;;10.90;80.50;;;;;;5127927;27;20027;-67
2022/01/12 11:23:00;;;;;;;11.23;7.22;;;10.60;80.40;;;;;;5126259;27;20084;-66
2022/01/12 11:25:32;;;;;;;9.27;6.55;;;10.50;82.70;;;;;;5112897;27;20377;-67
2022/01/12 11:28:06;;;;;;;;;;;10.70;82.50;;;;;;5125737;27;20091;-64
2022/01/12 11:30:33;;;;;;;10.80;6.47;;;10.80;82.60;;;;;;5128923;27;19919;-66
2022/01/12 11:33:01;;;;;;;13.65;8.23;;;10.60;82.30;;;;;;5115432;27;20392;-66
2022/01/12 11:35:30;;;;;;;10.27;6.25;;;10.30;83.30;;;;;;5122729;27;20114;-66
2022/01/12 11:38:00;;;;;;;13.38;7.68;;;10.10;85.90;;;;;;5122286;27;20023;-66
2022/01/12 11:40:37;;;;;;;9.27;6.60;;;10.00;88.50;;;;;;5113054;27;20085;-64
2022/01/12 11:43:15;;;;;;;7.40;6.20;;;9.90;85.60;;;;;;5119409;27;20027;-65
2022/01/12 11:45:40;;;;;;;9.95;6.25;;;9.40;86.50;;;;;;5132520;27;20027;-70
2022/01/12 11:48:06;;;;;;;13.18;7.00;;;9.00;88.10;;;;;;5113785;27;20130;-67
2022/01/12 11:50:32;;;;;;;11.85;6.00;;;9.60;90.00;;;;;;5123778;27;20056;-67
2022/01/12 11:52:58;;;;;;;24.35;6.95;;;10.50;96.60;;;;;;5119957;27;20473;-70
2022/01/12 11:55:30;;;;;;;24.30;6.85;;;10.80;90.80;;;;;;5116431;27;20024;-66
2022/01/12 11:58:01;;;;;;;9.65;5.90;;;10.10;90.10;;;;;;5133226;27;20024;-66
2022/01/12 12:00:30;;;;;;;7.57;6.07;;;10.00;90.50;;;;;;5129597;27;20023;-69
2022/01/12 12:02:57;;;;;;;12.02;6.03;;;10.50;91.40;;;;;;5127067;27;20414;-66
2022/01/12 12:05:27;;;;;;;8.35;5.38;;;10.80;88.40;;;;;;5124501;28;20061;-67
2022/01/12 12:08:02;;;;;;;9.05;5.50;;;11.40;86.00;;;;;;5130023;27;20027;-67
2022/01/12 12:10:29;;;;;;;8.60;6.43;;;11.70;84.50;;;;;;5122337;27;20096;-69
2022/01/12 12:12:57;;;;;;;12.95;5.55;;;11.80;82.70;;;;;;5115725;27;20282;-65
2022/01/12 12:15:23;;;;;;;8.35;5.20;;;12.20;83.00;;;;;;5121708;27;20468;-63
2022/01/12 12:17:51;;;;;;;9.02;5.50;;;13.30;91.00;;;;;;5130295;27;20023;-66
2022/01/12 12:20:20;;;;;;;6.88;5.72;;;14.00;81.10;;;;;;5121172;27;20459;-64
2022/01/12 12:22:47;;;;;;;9.68;5.60;;;14.80;74.00;;;;;;5118635;27;20077;-66
2022/01/12 12:25:27;;;;;;;6.32;4.47;;;15.00;71.70;;;;;;5119011;27;20153;-64
2022/01/12 12:27:56;;;;;;;7.80;4.10;;;15.20;68.30;;;;;;5128756;27;20031;-64
2022/01/12 12:30:24;;;;;;;6.85;4.55;;;16.10;69.10;;;;;;5118963;27;20032;-69
2022/01/12 12:32:53;;;;;;;5.00;3.80;;;15.80;68.10;;;;;;5113428;27;20027;-65
2022/01/12 12:35:25;;;;;;;8.23;4.13;;;15.00;66.60;;;;;;5115806;27;20040;-65
2022/01/12 12:37:56;;;;;;;9.27;4.28;;;14.80;70.90;;;;;;5118417;27;20027;-65
2022/01/12 12:40:25;;;;;;;;;;;15.40;69.20;;;;;;5115991;27;20023;-66
2022/01/12 12:43:01;;;;;;;4.72;3.85;;;14.60;68.90;;;;;;5119323;27;19907;-66
2022/01/12 12:45:48;;;;;;;5.82;4.47;;;12.60;72.50;;;;;;5122118;27;20035;-64
2022/01/12 12:48:17;;;;;;;5.68;3.83;;;13.20;72.40;;;;;;5117962;27;20032;-63
2022/01/12 12:50:43;;;;;;;7.65;4.93;;;13.90;71.80;;;;;;5121072;27;20173;-65
2022/01/12 12:53:09;;;;;;;5.72;4.90;;;13.50;70.50;;;;;;5124898;27;20023;-64
2022/01/12 12:55:37;;;;;;;7.85;4.35;;;14.00;70.40;;;;;;5117914;27;20464;-66
2022/01/12 12:58:04;;;;;;;6.25;4.60;;;14.80;69.30;;;;;;5125283;27;20028;-67
2022/01/12 13:00:30;;;;;;;6.88;4.90;;;14.60;68.10;;;;;;5123662;27;20365;-64
2022/01/12 13:02:58;;;;;;;8.45;5.38;;;14.80;68.30;;;;;;5118208;27;20031;-66
2022/01/12 13:05:29;;;;;;;11.70;5.80;;;15.20;67.70;;;;;;5124218;27;20034;-66
2022/01/12 13:07:55;;;;;;;7.38;5.70;;;15.20;67.00;;;;;;5122952;27;20030;-66
2022/01/12 13:10:32;;;;;;;7.28;5.40;;;14.70;66.60;;;;;;5110444;27;20049;-64
2022/01/12 13:13:08;;;;;;;6.03;5.32;;;14.40;67.50;;;;;;5126302;27;20050;-68
2022/01/12 13:15:37;;;;;;;8.80;5.32;;;14.80;68.90;;;;;;5127566;27;20088;-62
2022/01/12 13:18:20;;;;;;;9.43;5.53;;;15.80;71.80;;;;;;5123684;27;20070;-69
2022/01/12 13:21:07;;;;;;;7.70;5.85;;;15.10;67.90;;;;;;5117631;27;20431;-67
2022/01/12 13:23:46;;;;;;;8.07;5.75;;;14.50;68.30;;;;;;5110708;28;20460;-67
2022/01/12 13:26:17;;;;;;;7.90;5.57;;;14.30;68.70;;;;;;5116054;27;20027;-67
2022/01/12 13:28:46;;;;;;;11.83;6.43;;;13.20;70.90;;;;;;5120212;27;20361;-65
2022/01/12 13:31:14;;;;;;;8.57;5.80;;;13.10;71.20;;;;;;5133106;27;20031;-65
2022/01/12 13:33:48;;;;;;;7.78;5.95;;;12.90;71.60;;;;;;5132762;27;20487;-65
2022/01/12 13:36:15;;;;;;;8.00;5.85;;;12.90;72.50;;;;;;5121101;27;20027;-65
2022/01/12 13:38:46;;;;;;;8.02;5.82;;;12.80;72.80;;;;;;5121366;27;20080;-64
2022/01/12 13:41:17;;;;;;;8.13;5.77;;;12.20;73.50;;;;;;5120635;27;20039;-66
2022/01/12 13:43:51;;;;;;;9.55;5.90;;;12.20;74.50;;;;;;5131851;27;20153;-68
2022/01/12 13:46:18;;;;;;;29.67;7.57;;;11.90;75.50;;;;;;5115593;27;20024;-66
2022/01/12 13:51:40;;;;;;;10.55;6.70;;;12.30;75.70;;;;;;5122551;27;20034;-65
2022/01/12 13:54:15;;;;;;;8.90;5.95;;;11.90;77.40;;;;;;5133431;27;20379;-66
2022/01/12 13:56:49;;;;;;;7.82;5.70;;;11.70;77.80;;;;;;5121801;27;20035;-66
2022/01/12 13:59:16;;;;;;;12.75;6.13;;;11.30;78.30;;;;;;5122507;27;20063;-67
2022/01/12 14:01:43;;;;;;;11.88;6.60;;;11.30;79.60;;;;;;5127503;27;20053;-69
2022/01/12 14:04:15;;;;;;;9.93;5.82;;;11.30;80.30;;;;;;5135143;27;20059;-67
2022/01/12 14:06:46;;;;;;;9.48;6.68;;;11.10;80.50;;;;;;5133130;27;20117;-65
2022/01/12 14:11:55;;;;;;;11.05;6.03;;;11.50;81.40;;;;;;5117515;27;20039;-67
2022/01/12 14:14:24;;;;;;;10.10;5.00;;;11.40;80.70;;;;;;5117753;27;20028;-67
2022/01/12 14:16:50;;;;;;;10.38;6.18;;;11.50;79.60;;;;;;5120960;27;20031;-67
2022/01/12 14:19:16;;;;;;;7.75;6.28;;;11.30;80.70;;;;;;5113777;27;20023;-67
2022/01/12 14:21:55;;;;;;;9.15;5.80;;;11.40;80.80;;;;;;5118502;27;20027;-66
2022/01/12 14:24:21;;;;;;;8.02;5.47;;;11.10;80.70;;;;;;5121827;27;20453;-72
2022/01/12 14:26:48;;;;;;;7.55;5.68;;;10.90;81.60;;;;;;5126441;27;20464;-68